Flight Track Log - Related Links

Times and Time Zones

All times are in EDT time to prevent confusion due to time zone crossing. See the N775NC flight status page for this flight to view local times or setup timezone preferences in your user account.

Time Position Orientation Groundspeed Altitude Reporting Facility
EDT Latitude Longitude Course Direction KTS MPH feet Rate Location/Type
Thu 07:55:00 PM 33.6500 -84.4500 29° Northeast 155 178 2,200  Level Atlanta TRACON
Thu 07:55:54 PM 33.6667 -84.5167 287° West 225 259 3,700 2,263 Climbing Atlanta TRACON
Thu 07:56:54 PM 33.6833 -84.5833 287° West 272 313 6,500 2,221 Climbing Atlanta TRACON
Thu 07:58:55 PM 33.8472 -84.6092 353° North 299 344 10,400 2,122 Climbing Atlanta Center
Thu 07:59:00 PM 34.0476 -84.0069 24° Northeast  Level Estimated
Thu 07:59:55 PM 33.9433 -84.6047 North 326 375 12,900  Level Atlanta Center
Thu 08:00:00 PM 34.1297 -83.9222 29° Northeast  Level Estimated
Thu 08:00:55 PM 34.0542 -84.5553 20° North 359 413 14,000  Level Atlanta Center
Thu 08:01:55 PM 34.1628 -84.4933 25° Northeast 397 457 15,800 1,950 Climbing Atlanta Center
Thu 08:02:55 PM 34.2633 -84.4158 32° Northeast 424 488 17,900 1,600 Climbing Atlanta Center
Thu 08:03:55 PM 34.3678 -84.3308 34° Northeast 446 513 19,000 550 Climbing Atlanta Center
Thu 08:04:55 PM 34.4767 -84.2453 33° Northeast 462 532 19,000  Level Atlanta Center
Thu 08:05:55 PM 34.5894 -84.1700 29° Northeast 462 532 19,000 50 Level Atlanta Center
Thu 08:06:55 PM 34.7022 -84.1144 22° Northeast 449 517 19,100  Climbing Atlanta Center
Thu 08:07:55 PM 34.8147 -84.0414 28° Northeast 444 511 19,000 -50 Descending Atlanta Center
Thu 08:08:55 PM 34.9150 -83.9475 38° Northeast 444 511 19,000 50 Level Atlanta Center
Thu 08:09:55 PM 35.0150 -83.8536 38° Northeast 449 517 19,100  Climbing Atlanta Center
Thu 08:10:55 PM 35.0689 -83.7089 66° East 438 504 19,000 -50 Descending Atlanta Center
Thu 08:11:55 PM 35.1186 -83.5639 67° East 444 511 19,000 -50 Level Atlanta Center
Thu 08:12:55 PM 35.1639 -83.4139 70° East 457 526 18,900 -900 Descending Atlanta Center
Thu 08:13:55 PM 35.1964 -83.2636 75° East 457 526 17,200 -1,800 Descending Atlanta Center
Thu 08:14:55 PM 35.2286 -83.1261 74° East 467 537 15,300 -1,800 Descending Atlanta Center
Thu 08:15:55 PM 35.2608 -82.9756 75° East 457 526 13,600 -1,650 Descending Atlanta Center
Thu 08:16:55 PM 35.2992 -82.8375 71° East 418 481 12,000 -1,600 Descending Atlanta Center
Thu 08:17:55 PM 35.3292 -82.7075 74° East 397 457 10,400 -1,200 Descending Atlanta Center
Thu 08:18:55 PM 35.3572 -82.6025 72° East 362 417 9,600 -1,350 Descending Atlanta Center
Thu 08:19:55 PM 35.3250 -82.5217 116° Southeast 292 336 7,700 -1,450 Descending Atlanta Center
Thu 08:20:55 PM 35.2436 -82.5206 179° South 248 285 6,700 -1,050 Descending Atlanta Center
Thu 08:21:55 PM 35.1686 -82.5219 181° South 255 293 5,600 -850 Descending Atlanta Center
Thu 08:22:55 PM 35.1636 -82.4533 95° East 156 180 5,000 -600 Descending Atlanta Center
Thu 08:24:00 PM 35.2607 -82.4848 345° North  Level Estimated
Thu 08:31:00 PM 35.4362 -82.5418 345° North  Level Estimated
Thu 08:32:00 PM 35.4362 -82.5418 39° Northeast  Level Estimated
Thu 08:33:00 PM 35.4362 -82.5418 39° Northeast  Level Estimated

Login

Don't have an account? Register now (free) for customized features, flight alerts, and more!